createdAt,value
2017-10-13T00:00:01.084Z,88.10
2017-10-13T00:03:11.098Z,88.10
2017-10-13T00:06:22.468Z,87.90
2017-10-13T00:09:32.496Z,87.90
2017-10-13T00:12:44.587Z,87.80
2017-10-13T00:15:55.919Z,87.70
2017-10-13T00:19:05.770Z,87.40
2017-10-13T00:22:15.683Z,87.50
2017-10-13T00:25:25.375Z,88.30
2017-10-13T00:28:35.299Z,88.40
2017-10-13T00:31:46.228Z,88.70
2017-10-13T00:34:56.721Z,88.90
2017-10-13T00:38:07.403Z,90.10
2017-10-13T00:41:18.198Z,90.20
2017-10-13T00:44:28.913Z,90.50
2017-10-13T00:47:39.536Z,90.40
2017-10-13T00:50:50.481Z,90.50
2017-10-13T00:54:00.543Z,90.50
2017-10-13T00:57:11.186Z,90.60
2017-10-13T01:00:21.869Z,90.70
2017-10-13T01:03:31.784Z,90.70
2017-10-13T01:06:41.690Z,91.10
2017-10-13T01:09:52.385Z,91.00
2017-10-13T01:13:03.031Z,91.30
2017-10-13T01:16:12.982Z,91.00
2017-10-13T01:19:23.830Z,90.90
2017-10-13T01:22:33.447Z,90.90
2017-10-13T01:25:44.701Z,90.90
2017-10-13T01:28:54.659Z,90.90
2017-10-13T01:32:04.723Z,90.80
2017-10-13T01:35:15.295Z,90.80
2017-10-13T01:38:26.017Z,90.60
2017-10-13T01:41:37.346Z,90.50
2017-10-13T01:44:48.147Z,90.60
2017-10-13T01:47:58.338Z,90.50
2017-10-13T01:51:08.775Z,90.60
2017-10-13T01:54:18.666Z,90.80
2017-10-13T01:57:28.218Z,90.80
2017-10-13T02:00:38.217Z,90.80
2017-10-13T02:03:49.128Z,90.70
2017-10-13T02:06:58.969Z,90.70
2017-10-13T02:10:09.598Z,90.80
2017-10-13T02:13:19.643Z,90.70
2017-10-13T02:16:29.424Z,90.70
2017-10-13T02:19:39.982Z,90.70
2017-10-13T02:22:50.711Z,90.20
2017-10-13T02:26:03.858Z,90.50
2017-10-13T02:29:14.657Z,90.80
2017-10-13T02:32:24.491Z,90.80
2017-10-13T02:35:34.626Z,90.80
2017-10-13T02:38:46.158Z,90.70
2017-10-13T02:41:56.132Z,90.70
2017-10-13T02:45:07.859Z,90.90
2017-10-13T02:48:18.478Z,91.20
2017-10-13T02:51:28.097Z,91.10
2017-10-13T02:54:38.206Z,91.30
2017-10-13T02:57:48.915Z,91.20
2017-10-13T03:00:59.620Z,91.60
2017-10-13T03:04:10.319Z,91.60
2017-10-13T03:07:20.701Z,91.60
2017-10-13T03:10:31.358Z,91.20
2017-10-13T03:13:41.147Z,91.30
2017-10-13T03:16:51.753Z,91.90
2017-10-13T03:20:02.765Z,91.90
2017-10-13T03:23:12.765Z,91.90
2017-10-13T03:26:23.980Z,92.20
2017-10-13T03:29:34.372Z,92.10
2017-10-13T03:32:46.419Z,92.20
2017-10-13T03:35:57.845Z,92.40
2017-10-13T03:39:09.200Z,92.70
2017-10-13T03:42:20.397Z,93.00
2017-10-13T03:45:30.070Z,92.90
2017-10-13T03:48:39.819Z,93.60
2017-10-13T03:51:49.981Z,95.00
2017-10-13T07:19:57.783Z,94.10
2017-10-13T07:23:08.378Z,94.40
2017-10-13T07:26:18.429Z,94.20
2017-10-13T07:29:28.094Z,94.30
2017-10-13T07:32:38.772Z,93.60
2017-10-13T07:35:48.538Z,93.70
2017-10-13T07:38:58.753Z,93.80
2017-10-13T07:42:09.043Z,93.50
2017-10-13T07:45:18.959Z,93.70
2017-10-13T07:48:29.715Z,93.80
2017-10-13T07:51:40.473Z,93.30
2017-10-13T07:54:50.425Z,93.20
2017-10-13T07:58:00.524Z,93.40
2017-10-13T08:01:11.928Z,93.30
2017-10-13T09:02:20.305Z,92.20
2017-10-13T09:05:30.030Z,92.40
2017-10-13T09:08:40.821Z,92.00
2017-10-13T09:11:51.979Z,92.20
2017-10-13T09:15:02.999Z,92.00
2017-10-13T09:18:12.771Z,91.90
2017-10-13T09:21:23.349Z,91.70
2017-10-13T09:24:34.112Z,92.00
2017-10-13T09:27:45.259Z,92.00
2017-10-13T09:30:55.977Z,92.20
2017-10-13T09:34:06.877Z,91.60
2017-10-13T09:37:17.584Z,92.00
2017-10-13T09:40:28.198Z,92.20
2017-10-13T09:43:38.655Z,92.10
2017-10-13T09:46:49.131Z,92.00
2017-10-13T09:49:59.160Z,91.60
2017-10-13T09:53:09.993Z,91.50
2017-10-13T09:56:20.802Z,92.00
2017-10-13T09:59:32.566Z,91.50
2017-10-13T10:02:43.456Z,91.20
2017-10-13T11:51:36.625Z,75.30
2017-10-13T11:54:47.401Z,75.50
2017-10-13T11:57:58.284Z,75.40
2017-10-13T12:01:09.121Z,76.10
2017-10-13T12:04:19.980Z,76.10
2017-10-13T12:07:29.795Z,76.40
2017-10-13T12:10:39.836Z,76.40
2017-10-13T12:13:50.107Z,76.30
2017-10-13T12:17:00.429Z,77.30
2017-10-13T12:20:10.578Z,76.90
2017-10-13T12:23:20.526Z,77.20
2017-10-13T12:26:30.656Z,78.10
2017-10-13T12:29:41.710Z,77.10
2017-10-13T12:32:52.457Z,77.30
2017-10-13T12:36:03.242Z,78.00
2017-10-13T12:39:13.584Z,77.90
2017-10-13T12:42:23.721Z,78.10
2017-10-13T12:45:34.505Z,76.60
2017-10-13T12:48:44.394Z,76.70
2017-10-13T12:51:54.918Z,77.30
2017-10-13T12:55:05.065Z,77.20
2017-10-13T12:58:16.605Z,75.00
2017-10-13T13:01:27.169Z,74.90
2017-10-13T13:04:37.727Z,74.90
2017-10-13T13:07:48.542Z,74.10
2017-10-13T13:10:59.597Z,73.70
2017-10-13T13:14:09.736Z,73.70
2017-10-13T13:17:19.668Z,74.30
2017-10-13T13:20:29.460Z,74.50
2017-10-13T13:23:39.400Z,73.90
2017-10-13T13:26:49.297Z,73.80
2017-10-13T13:29:59.198Z,74.20
2017-10-13T13:33:10.759Z,74.10
2017-10-13T13:36:20.974Z,74.00
2017-10-13T13:39:31.117Z,73.50
2017-10-13T13:42:41.843Z,73.80
2017-10-13T13:45:51.711Z,73.10
2017-10-13T13:49:01.623Z,74.40
2017-10-13T13:52:12.335Z,73.40
2017-10-13T13:55:23.083Z,73.20
2017-10-13T13:58:33.007Z,74.90
2017-10-13T14:01:44.716Z,74.20
2017-10-13T14:04:55.459Z,73.80
2017-10-13T14:08:05.977Z,73.40
2017-10-13T14:11:16.077Z,71.50
2017-10-13T14:14:25.668Z,72.00
2017-10-13T14:17:37.174Z,74.30
2017-10-13T14:20:48.458Z,74.30
2017-10-13T14:23:59.714Z,74.50
2017-10-13T14:27:09.664Z,74.50
2017-10-13T14:30:19.630Z,75.60
2017-10-13T14:33:30.432Z,75.30
2017-10-13T14:36:41.037Z,74.90
2017-10-13T14:39:50.876Z,74.00
2017-10-13T14:43:00.800Z,74.60
2017-10-13T14:46:11.261Z,75.90
2017-10-13T14:49:22.394Z,76.00
2017-10-13T14:52:33.231Z,76.20
2017-10-13T14:55:43.197Z,76.20
2017-10-13T14:58:53.578Z,75.90
2017-10-13T15:02:03.787Z,76.50
2017-10-13T15:05:13.561Z,77.10
2017-10-13T15:08:24.351Z,78.30
2017-10-13T15:11:34.230Z,78.30
2017-10-13T15:14:44.505Z,78.90
2017-10-13T15:17:54.476Z,79.30
2017-10-13T15:21:05.160Z,79.00
2017-10-13T15:24:15.059Z,79.70
2017-10-13T15:27:30.809Z,79.40
2017-10-13T15:30:47.316Z,79.50
2017-10-13T15:34:04.397Z,79.60
2017-10-13T15:37:14.988Z,79.60
2017-10-13T15:40:30.410Z,79.90
2017-10-13T15:47:24.698Z,81.30
2017-10-13T15:50:40.901Z,81.30
2017-10-13T15:53:51.303Z,81.30
2017-10-13T15:57:01.257Z,81.20
2017-10-13T16:00:10.878Z,81.20
2017-10-13T16:03:20.971Z,81.70
2017-10-13T16:06:31.082Z,82.10
2017-10-13T16:09:41.773Z,82.30
2017-10-13T16:12:52.017Z,82.20
2017-10-13T16:16:02.689Z,82.50
2017-10-13T16:19:12.759Z,82.60
2017-10-13T16:22:22.729Z,83.20
2017-10-13T16:25:33.455Z,82.80
2017-10-13T16:28:43.439Z,83.00
2017-10-13T16:31:53.567Z,83.20
2017-10-13T16:35:03.342Z,83.70
2017-10-13T16:38:14.119Z,84.00
2017-10-13T16:41:25.221Z,84.10
2017-10-13T16:44:36.067Z,84.40
2017-10-13T16:47:46.040Z,84.20
2017-10-13T16:50:56.114Z,84.50
2017-10-13T16:54:06.746Z,84.40
2017-10-13T16:57:16.852Z,84.90
2017-10-13T17:00:28.749Z,85.20
2017-10-13T17:03:39.381Z,85.00
2017-10-13T17:06:49.351Z,85.40
2017-10-13T17:10:00.384Z,85.60
2017-10-13T17:13:10.470Z,86.30
2017-10-13T17:16:21.174Z,87.20
2017-10-13T17:19:30.944Z,87.00
2017-10-13T17:22:41.882Z,86.90
2017-10-13T17:25:51.978Z,87.20
2017-10-13T17:29:01.944Z,87.80
2017-10-13T17:32:12.765Z,88.10
2017-10-13T17:35:23.493Z,88.30
2017-10-13T17:38:33.425Z,88.20
2017-10-13T17:41:44.944Z,88.70
2017-10-13T17:44:54.693Z,88.60
2017-10-13T17:48:04.619Z,88.40
2017-10-13T17:54:26.188Z,88.90
2017-10-13T17:57:36.189Z,88.80
2017-10-13T18:00:47.018Z,89.10
2017-10-13T18:03:58.178Z,89.00
2017-10-13T18:07:08.882Z,89.10
2017-10-13T18:10:20.490Z,89.40
2017-10-13T18:13:31.820Z,89.40
2017-10-13T18:16:43.037Z,89.50
2017-10-13T18:19:53.918Z,90.20
2017-10-13T18:23:04.057Z,90.20
2017-10-13T18:26:15.021Z,90.60
2017-10-13T18:29:25.586Z,91.00
2017-10-13T18:32:35.880Z,91.10
2017-10-13T18:35:46.402Z,91.10
2017-10-13T18:38:57.462Z,91.20
2017-10-13T18:42:08.289Z,91.30
2017-10-13T18:45:18.883Z,91.70
2017-10-13T19:55:40.258Z,93.20
2017-10-13T19:58:50.007Z,93.00
2017-10-13T20:01:59.918Z,92.30
2017-10-13T20:05:10.794Z,92.60
2017-10-13T20:08:21.996Z,92.70
2017-10-13T20:11:35.139Z,92.60
2017-10-13T20:14:45.915Z,92.80
2017-10-13T20:17:57.449Z,93.40
2017-10-13T20:21:07.569Z,93.40
2017-10-13T20:24:18.189Z,92.90
2017-10-13T20:27:28.192Z,92.90
2017-10-13T20:30:38.357Z,93.00
2017-10-13T20:33:48.989Z,93.50
2017-10-13T20:36:59.659Z,93.00
2017-10-13T20:40:10.306Z,93.00
2017-10-13T20:43:20.454Z,93.50
2017-10-13T20:46:31.039Z,93.40
2017-10-13T20:49:41.746Z,93.60
2017-10-13T20:52:52.388Z,93.50
2017-10-13T20:56:03.037Z,93.80
2017-10-13T20:59:13.585Z,93.80
2017-10-13T21:02:25.195Z,93.70
2017-10-13T21:05:35.483Z,93.70
2017-10-13T21:08:45.803Z,93.40
2017-10-13T21:11:57.548Z,93.20
2017-10-13T21:15:08.290Z,93.90
2017-10-13T21:18:18.883Z,93.90
2017-10-13T21:21:29.783Z,93.70
2017-10-13T21:24:41.105Z,93.40
2017-10-13T21:27:51.176Z,93.70
2017-10-13T21:31:01.081Z,93.60
2017-10-13T21:34:11.111Z,93.60
2017-10-13T21:37:22.176Z,93.50
2017-10-13T21:40:32.001Z,93.90
2017-10-13T21:43:42.400Z,93.90
2017-10-13T21:46:52.364Z,94.00
2017-10-13T21:50:02.958Z,93.90
2017-10-13T21:53:13.725Z,93.80
2017-10-13T21:56:23.741Z,93.70
2017-10-13T21:59:34.565Z,93.80
2017-10-13T22:02:44.439Z,93.40
2017-10-13T22:05:54.478Z,93.50
2017-10-13T22:09:03.800Z,93.60
2017-10-13T22:12:13.618Z,93.40
2017-10-13T22:15:23.951Z,93.40
2017-10-13T22:18:34.219Z,93.50
2017-10-13T22:21:44.275Z,93.20
2017-10-13T22:24:54.449Z,93.20
2017-10-13T22:28:04.417Z,93.40
2017-10-13T22:31:14.799Z,93.50
2017-10-13T22:34:25.021Z,93.60
2017-10-13T22:37:35.217Z,93.60
2017-10-13T22:40:45.918Z,93.60
2017-10-13T22:43:56.125Z,93.50
2017-10-13T22:47:06.361Z,93.60
2017-10-13T22:50:16.447Z,93.60
2017-10-13T22:53:26.401Z,94.20
2017-10-13T22:56:36.497Z,93.90
2017-10-13T22:59:46.352Z,93.70
2017-10-13T23:02:56.387Z,93.90
2017-10-13T23:06:07.014Z,93.90
2017-10-13T23:09:16.909Z,93.90
2017-10-13T23:12:27.348Z,93.90
2017-10-13T23:15:38.389Z,93.50
2017-10-13T23:18:48.462Z,93.50
2017-10-13T23:21:59.047Z,93.80
2017-10-13T23:25:09.490Z,93.40
2017-10-13T23:28:21.306Z,93.80
2017-10-13T23:31:32.060Z,94.10
2017-10-13T23:34:42.193Z,94.30
2017-10-13T23:37:52.662Z,93.90
2017-10-13T23:41:03.957Z,93.90
2017-10-13T23:44:15.675Z,93.90
2017-10-13T23:47:25.950Z,93.80
2017-10-13T23:50:36.341Z,93.90
2017-10-13T23:53:46.536Z,93.70
2017-10-13T23:56:56.511Z,94.00
